Weather at Capital City Airport

Public forecast

Using degrees Fahrenheit for public forecast. Weather courtesy of forecast.io.

Current aviation weather report (METAR) for Capital City Airport

2024/07/12 23:53 (retrieved 42 minutes ago)

KLAN 122353Z 10003KT 10SM CLR 27/18 A3012 RMK AO2 SLP195 T02720178 10289 20261 53002

Closest aviation forecast (TAF) to Capital City Airport

Closest forecast is Selfridge Air National Guard Base Airport, 77.9 nm (144.2 km) E.

2024/07/12 21:05 Ammendment (retrieved 3 hours ago)

TAF AMD KMTC 122100Z 1221/1401 VRB06KT 9000 -RA SCT045 BKN065 QNH3009INS BECMG 1300/1301 VRB06KT 9999 NSW BKN050 QNH3011INS BECMG 1303/1304 VRB06KT 9999 SCT030 QNH3015INS TX29/1319Z TN18/1310Z LAST NO AMDS AFT 1303 NEXT 1311